sensor_id;sensor_type;location;lat;lon;timestamp;P1;durP1;ratioP1;P2;durP2;ratioP2
84623;SDS011;74849;51.340;12.610;2024-03-02T05:31:16;36.03;;;16.42;;
84623;SDS011;74849;51.340;12.610;2024-03-02T05:33:43;42.75;;;16.90;;
84623;SDS011;74849;51.340;12.610;2024-03-02T05:36:10;34.65;;;15.30;;
84623;SDS011;74849;51.340;12.610;2024-03-02T05:38:37;42.03;;;18.67;;
84623;SDS011;74849;51.340;12.610;2024-03-02T05:41:04;37.92;;;15.80;;
84623;SDS011;74849;51.340;12.610;2024-03-02T05:43:31;41.50;;;16.65;;
84623;SDS011;74849;51.340;12.610;2024-03-02T05:45:58;38.42;;;16.60;;
84623;SDS011;74849;51.340;12.610;2024-03-02T05:48:24;35.90;;;16.73;;
84623;SDS011;74849;51.340;12.610;2024-03-02T05:50:51;34.85;;;16.80;;
84623;SDS011;74849;51.340;12.610;2024-03-02T05:53:18;35.00;;;16.23;;
84623;SDS011;74849;51.340;12.610;2024-03-02T05:55:45;38.13;;;15.73;;
84623;SDS011;74849;51.340;12.610;2024-03-02T05:58:12;35.85;;;16.05;;
84623;SDS011;74849;51.340;12.610;2024-03-02T06:00:58;35.35;;;16.30;;
84623;SDS011;74849;51.340;12.610;2024-03-02T06:03:25;42.30;;;17.08;;
84623;SDS011;74849;51.340;12.610;2024-03-02T06:05:52;37.50;;;17.85;;
84623;SDS011;74849;51.340;12.610;2024-03-02T06:08:19;36.67;;;17.17;;
84623;SDS011;74849;51.340;12.610;2024-03-02T06:10:45;37.03;;;17.27;;
84623;SDS011;74849;51.340;12.610;2024-03-02T06:13:12;39.70;;;16.92;;
84623;SDS011;74849;51.340;12.610;2024-03-02T06:15:39;42.20;;;16.52;;
84623;SDS011;74849;51.340;12.610;2024-03-02T06:18:07;37.33;;;16.63;;
84623;SDS011;74849;51.340;12.610;2024-03-02T06:20:34;42.33;;;17.73;;
84623;SDS011;74849;51.340;12.610;2024-03-02T06:23:01;39.85;;;17.48;;
84623;SDS011;74849;51.340;12.610;2024-03-02T06:25:27;42.65;;;17.90;;
84623;SDS011;74849;51.340;12.610;2024-03-02T06:27:54;39.30;;;16.10;;
84623;SDS011;74849;51.340;12.610;2024-03-02T06:30:21;39.90;;;17.77;;
84623;SDS011;74849;51.340;12.610;2024-03-02T06:32:48;40.90;;;18.77;;
84623;SDS011;74849;51.340;12.610;2024-03-02T06:35:15;40.08;;;17.08;;
84623;SDS011;74849;51.340;12.610;2024-03-02T06:37:42;36.15;;;17.77;;
84623;SDS011;74849;51.340;12.610;2024-03-02T06:40:09;36.03;;;15.70;;
84623;SDS011;74849;51.340;12.610;2024-03-02T06:42:36;39.90;;;16.50;;
84623;SDS011;74849;51.340;12.610;2024-03-02T06:45:03;36.28;;;17.17;;
84623;SDS011;74849;51.340;12.610;2024-03-02T06:47:31;41.53;;;16.52;;
84623;SDS011;74849;51.340;12.610;2024-03-02T06:49:58;39.58;;;16.35;;
84623;SDS011;74849;51.340;12.610;2024-03-02T06:52:25;42.30;;;17.67;;
84623;SDS011;74849;51.340;12.610;2024-03-02T06:54:52;36.33;;;16.38;;
84623;SDS011;74849;51.340;12.610;2024-03-02T06:57:19;37.20;;;16.90;;
84623;SDS011;74849;51.340;12.610;2024-03-02T06:59:46;40.38;;;16.75;;
84623;SDS011;74849;51.340;12.610;2024-03-02T07:02:15;36.58;;;15.18;;
84623;SDS011;74849;51.340;12.610;2024-03-02T07:04:42;34.50;;;15.95;;
84623;SDS011;74849;51.340;12.610;2024-03-02T07:07:11;38.80;;;17.40;;
84623;SDS011;74849;51.340;12.610;2024-03-02T07:09:38;36.83;;;15.18;;
84623;SDS011;74849;51.340;12.610;2024-03-02T07:12:09;40.78;;;16.20;;
84623;SDS011;74849;51.340;12.610;2024-03-02T07:14:36;39.75;;;15.90;;
84623;SDS011;74849;51.340;12.610;2024-03-02T07:17:23;39.00;;;17.10;;
84623;SDS011;74849;51.340;12.610;2024-03-02T07:19:51;37.38;;;15.40;;
84623;SDS011;74849;51.340;12.610;2024-03-02T07:22:19;39.90;;;17.55;;
84623;SDS011;74849;51.340;12.610;2024-03-02T07:24:46;34.17;;;14.98;;
84623;SDS011;74849;51.340;12.610;2024-03-02T07:27:13;33.85;;;14.82;;
84623;SDS011;74849;51.340;12.610;2024-03-02T07:29:41;33.55;;;14.68;;
84623;SDS011;74849;51.340;12.610;2024-03-02T07:32:09;35.38;;;15.73;;
84623;SDS011;74849;51.340;12.610;2024-03-02T07:34:36;35.72;;;15.93;;
84623;SDS011;74849;51.340;12.610;2024-03-02T07:37:04;30.52;;;15.25;;
84623;SDS011;74849;51.340;12.610;2024-03-02T07:39:31;33.65;;;15.50;;
84623;SDS011;74849;51.340;12.610;2024-03-02T07:41:59;32.25;;;14.85;;
84623;SDS011;74849;51.340;12.610;2024-03-02T07:44:26;37.00;;;16.58;;
84623;SDS011;74849;51.340;12.610;2024-03-02T07:46:53;38.22;;;17.10;;
84623;SDS011;74849;51.340;12.610;2024-03-02T07:49:20;37.58;;;17.10;;
84623;SDS011;74849;51.340;12.610;2024-03-02T07:51:47;36.70;;;14.35;;
84623;SDS011;74849;51.340;12.610;2024-03-02T07:54:14;34.80;;;15.85;;
84623;SDS011;74849;51.340;12.610;2024-03-02T07:56:41;31.20;;;16.33;;
84623;SDS011;74849;51.340;12.610;2024-03-02T07:59:08;36.20;;;15.35;;
84623;SDS011;74849;51.340;12.610;2024-03-02T08:01:35;36.83;;;15.90;;
84623;SDS011;74849;51.340;12.610;2024-03-02T08:04:02;38.13;;;15.60;;
84623;SDS011;74849;51.340;12.610;2024-03-02T08:06:29;34.08;;;15.57;;
84623;SDS011;74849;51.340;12.610;2024-03-02T08:08:57;35.38;;;16.35;;
84623;SDS011;74849;51.340;12.610;2024-03-02T08:11:24;34.42;;;17.00;;
84623;SDS011;74849;51.340;12.610;2024-03-02T08:13:53;39.72;;;18.23;;
84623;SDS011;74849;51.340;12.610;2024-03-02T08:16:22;34.17;;;15.93;;
84623;SDS011;74849;51.340;12.610;2024-03-02T08:18:51;36.67;;;14.43;;
84623;SDS011;74849;51.340;12.610;2024-03-02T08:21:18;37.90;;;16.33;;
84623;SDS011;74849;51.340;12.610;2024-03-02T08:23:45;32.28;;;15.82;;
84623;SDS011;74849;51.340;12.610;2024-03-02T08:26:12;35.13;;;17.23;;
84623;SDS011;74849;51.340;12.610;2024-03-02T08:28:39;34.42;;;16.40;;
84623;SDS011;74849;51.340;12.610;2024-03-02T08:31:06;31.98;;;15.75;;
84623;SDS011;74849;51.340;12.610;2024-03-02T08:33:33;31.25;;;15.32;;
84623;SDS011;74849;51.340;12.610;2024-03-02T08:36:01;34.58;;;15.82;;
84623;SDS011;74849;51.340;12.610;2024-03-02T08:38:28;32.72;;;14.48;;
84623;SDS011;74849;51.340;12.610;2024-03-02T08:40:55;35.83;;;16.17;;
84623;SDS011;74849;51.340;12.610;2024-03-02T08:43:22;39.53;;;14.55;;
84623;SDS011;74849;51.340;12.610;2024-03-02T08:45:49;37.92;;;16.77;;
84623;SDS011;74849;51.340;12.610;2024-03-02T08:48:16;33.78;;;15.00;;
84623;SDS011;74849;51.340;12.610;2024-03-02T08:50:43;41.42;;;16.65;;
84623;SDS011;74849;51.340;12.610;2024-03-02T08:53:10;32.95;;;14.23;;
84623;SDS011;74849;51.340;12.610;2024-03-02T08:55:37;35.15;;;15.75;;
84623;SDS011;74849;51.340;12.610;2024-03-02T08:58:04;36.47;;;15.80;;
84623;SDS011;74849;51.340;12.610;2024-03-02T09:00:32;38.92;;;14.80;;
84623;SDS011;74849;51.340;12.610;2024-03-02T09:02:59;30.25;;;15.68;;
84623;SDS011;74849;51.340;12.610;2024-03-02T09:05:26;33.60;;;14.82;;
84623;SDS011;74849;51.340;12.610;2024-03-02T09:07:53;30.95;;;15.00;;
84623;SDS011;74849;51.340;12.610;2024-03-02T09:10:20;31.23;;;14.35;;
84623;SDS011;74849;51.340;12.610;2024-03-02T09:12:47;32.92;;;15.98;;
84623;SDS011;74849;51.340;12.610;2024-03-02T09:15:14;32.95;;;14.60;;
84623;SDS011;74849;51.340;12.610;2024-03-02T09:17:41;30.30;;;13.88;;
84623;SDS011;74849;51.340;12.610;2024-03-02T09:20:08;30.58;;;13.65;;
84623;SDS011;74849;51.340;12.610;2024-03-02T09:22:35;29.20;;;14.52;;
84623;SDS011;74849;51.340;12.610;2024-03-02T09:25:02;27.27;;;13.50;;
84623;SDS011;74849;51.340;12.610;2024-03-02T09:27:29;28.48;;;13.82;;
84623;SDS011;74849;51.340;12.610;2024-03-02T09:29:56;29.52;;;14.85;;
84623;SDS011;74849;51.340;12.610;2024-03-02T09:32:23;26.85;;;13.05;;
84623;SDS011;74849;51.340;12.610;2024-03-02T09:34:50;30.60;;;12.63;;
84623;SDS011;74849;51.340;12.610;2024-03-02T09:37:19;24.83;;;12.43;;
84623;SDS011;74849;51.340;12.610;2024-03-02T09:39:46;25.63;;;11.75;;
84623;SDS011;74849;51.340;12.610;2024-03-02T09:42:13;25.15;;;11.82;;
84623;SDS011;74849;51.340;12.610;2024-03-02T09:44:40;29.25;;;12.90;;
84623;SDS011;74849;51.340;12.610;2024-03-02T09:47:07;22.30;;;11.48;;
84623;SDS011;74849;51.340;12.610;2024-03-02T09:49:34;27.35;;;11.38;;
84623;SDS011;74849;51.340;12.610;2024-03-02T09:52:02;28.05;;;12.60;;
84623;SDS011;74849;51.340;12.610;2024-03-02T09:54:29;24.40;;;12.25;;
84623;SDS011;74849;51.340;12.610;2024-03-02T09:56:56;20.83;;;10.30;;
84623;SDS011;74849;51.340;12.610;2024-03-02T09:59:23;20.83;;;10.48;;
84623;SDS011;74849;51.340;12.610;2024-03-02T10:02:00;22.55;;;11.82;;
84623;SDS011;74849;51.340;12.610;2024-03-02T10:04:31;25.58;;;11.55;;
84623;SDS011;74849;51.340;12.610;2024-03-02T10:07:14;22.88;;;11.73;;
84623;SDS011;74849;51.340;12.610;2024-03-02T10:09:43;19.80;;;10.43;;
84623;SDS011;74849;51.340;12.610;2024-03-02T10:12:11;20.95;;;10.82;;
84623;SDS011;74849;51.340;12.610;2024-03-02T10:14:39;22.17;;;10.43;;
84623;SDS011;74849;51.340;12.610;2024-03-02T10:17:06;22.95;;;9.38;;
84623;SDS011;74849;51.340;12.610;2024-03-02T10:19:35;21.67;;;9.68;;
84623;SDS011;74849;51.340;12.610;2024-03-02T10:22:03;18.85;;;9.32;;
84623;SDS011;74849;51.340;12.610;2024-03-02T10:24:37;15.98;;;8.40;;
84623;SDS011;74849;51.340;12.610;2024-03-02T10:27:17;17.08;;;8.93;;
84623;SDS011;74849;51.340;12.610;2024-03-02T10:29:48;20.05;;;9.43;;
84623;SDS011;74849;51.340;12.610;2024-03-02T10:32:16;19.15;;;9.18;;
84623;SDS011;74849;51.340;12.610;2024-03-02T10:34:44;18.42;;;8.68;;
84623;SDS011;74849;51.340;12.610;2024-03-02T10:37:12;12.48;;;7.43;;
84623;SDS011;74849;51.340;12.610;2024-03-02T10:39:40;14.98;;;8.05;;
84623;SDS011;74849;51.340;12.610;2024-03-02T10:42:07;15.68;;;8.48;;
84623;SDS011;74849;51.340;12.610;2024-03-02T10:44:34;14.48;;;7.63;;
84623;SDS011;74849;51.340;12.610;2024-03-02T10:47:02;13.65;;;7.72;;
84623;SDS011;74849;51.340;12.610;2024-03-02T10:49:30;16.23;;;7.63;;
84623;SDS011;74849;51.340;12.610;2024-03-02T10:51:58;16.52;;;8.65;;
84623;SDS011;74849;51.340;12.610;2024-03-02T10:54:25;13.80;;;7.40;;
84623;SDS011;74849;51.340;12.610;2024-03-02T10:56:55;17.77;;;7.82;;
84623;SDS011;74849;51.340;12.610;2024-03-02T10:59:35;14.07;;;7.88;;
84623;SDS011;74849;51.340;12.610;2024-03-02T11:02:04;11.57;;;6.93;;
84623;SDS011;74849;51.340;12.610;2024-03-02T11:04:34;13.82;;;7.72;;
84623;SDS011;74849;51.340;12.610;2024-03-02T11:07:08;15.82;;;7.85;;
84623;SDS011;74849;51.340;12.610;2024-03-02T11:09:44;14.38;;;8.30;;
84623;SDS011;74849;51.340;12.610;2024-03-02T11:12:24;14.73;;;8.07;;
84623;SDS011;74849;51.340;12.610;2024-03-02T11:14:55;13.00;;;6.75;;
84623;SDS011;74849;51.340;12.610;2024-03-02T11:17:22;13.60;;;7.32;;
84623;SDS011;74849;51.340;12.610;2024-03-02T11:19:50;15.80;;;7.82;;
84623;SDS011;74849;51.340;12.610;2024-03-02T11:22:17;16.85;;;8.35;;
84623;SDS011;74849;51.340;12.610;2024-03-02T11:24:48;14.50;;;7.72;;
84623;SDS011;74849;51.340;12.610;2024-03-02T11:32:57;17.35;;;10.90;;
84623;SDS011;74849;51.340;12.610;2024-03-02T11:35:27;15.00;;;7.15;;
84623;SDS011;74849;51.340;12.610;2024-03-02T11:37:54;12.13;;;7.45;;
84623;SDS011;74849;51.340;12.610;2024-03-02T11:40:24;11.23;;;6.85;;
84623;SDS011;74849;51.340;12.610;2024-03-02T11:42:52;13.38;;;7.18;;
84623;SDS011;74849;51.340;12.610;2024-03-02T11:45:25;12.88;;;6.93;;
84623;SDS011;74849;51.340;12.610;2024-03-02T11:47:57;12.80;;;7.43;;
84623;SDS011;74849;51.340;12.610;2024-03-02T11:50:36;14.02;;;7.47;;
84623;SDS011;74849;51.340;12.610;2024-03-02T11:53:09;13.90;;;7.05;;
84623;SDS011;74849;51.340;12.610;2024-03-02T11:55:36;11.70;;;7.22;;
84623;SDS011;74849;51.340;12.610;2024-03-02T11:58:05;13.00;;;6.65;;
84623;SDS011;74849;51.340;12.610;2024-03-02T12:00:32;13.23;;;7.18;;
84623;SDS011;74849;51.340;12.610;2024-03-02T12:03:00;13.82;;;7.07;;
84623;SDS011;74849;51.340;12.610;2024-03-02T12:05:28;12.10;;;6.30;;
84623;SDS011;74849;51.340;12.610;2024-03-02T12:07:58;11.20;;;6.28;;
84623;SDS011;74849;51.340;12.610;2024-03-02T12:10:26;12.52;;;8.00;;
84623;SDS011;74849;51.340;12.610;2024-03-02T12:13:00;13.85;;;7.18;;
84623;SDS011;74849;51.340;12.610;2024-03-02T12:15:29;10.55;;;6.32;;
84623;SDS011;74849;51.340;12.610;2024-03-02T12:17:58;12.60;;;5.97;;
84623;SDS011;74849;51.340;12.610;2024-03-02T12:20:26;11.80;;;6.32;;
84623;SDS011;74849;51.340;12.610;2024-03-02T12:22:55;14.15;;;6.65;;
84623;SDS011;74849;51.340;12.610;2024-03-02T12:25:26;11.70;;;6.20;;
84623;SDS011;74849;51.340;12.610;2024-03-02T12:27:54;10.63;;;6.93;;
84623;SDS011;74849;51.340;12.610;2024-03-02T12:30:22;11.52;;;6.65;;
84623;SDS011;74849;51.340;12.610;2024-03-02T12:32:49;11.35;;;5.97;;
84623;SDS011;74849;51.340;12.610;2024-03-02T12:35:17;10.13;;;6.57;;
84623;SDS011;74849;51.340;12.610;2024-03-02T12:37:44;10.98;;;5.85;;
84623;SDS011;74849;51.340;12.610;2024-03-02T12:40:12;13.82;;;7.53;;
84623;SDS011;74849;51.340;12.610;2024-03-02T12:42:40;10.68;;;6.70;;
84623;SDS011;74849;51.340;12.610;2024-03-02T12:45:08;13.30;;;6.45;;
84623;SDS011;74849;51.340;12.610;2024-03-02T12:47:35;11.68;;;6.28;;
84623;SDS011;74849;51.340;12.610;2024-03-02T12:50:03;11.23;;;6.03;;
84623;SDS011;74849;51.340;12.610;2024-03-02T12:52:30;9.35;;;5.30;;
84623;SDS011;74849;51.340;12.610;2024-03-02T12:55:00;9.27;;;5.38;;
84623;SDS011;74849;51.340;12.610;2024-03-02T12:57:30;8.30;;;5.07;;
84623;SDS011;74849;51.340;12.610;2024-03-02T13:00:01;9.02;;;4.53;;
84623;SDS011;74849;51.340;12.610;2024-03-02T13:02:35;8.20;;;4.07;;
84623;SDS011;74849;51.340;12.610;2024-03-02T13:05:02;6.15;;;3.85;;
84623;SDS011;74849;51.340;12.610;2024-03-02T13:07:29;6.03;;;3.85;;
84623;SDS011;74849;51.340;12.610;2024-03-02T13:09:56;6.40;;;3.40;;
84623;SDS011;74849;51.340;12.610;2024-03-02T13:12:24;8.38;;;4.70;;
84623;SDS011;74849;51.340;12.610;2024-03-02T13:14:51;9.75;;;4.78;;
84623;SDS011;74849;51.340;12.610;2024-03-02T13:17:18;7.72;;;4.35;;
84623;SDS011;74849;51.340;12.610;2024-03-02T13:19:52;9.15;;;4.40;;
84623;SDS011;74849;51.340;12.610;2024-03-02T13:22:20;6.13;;;3.50;;
84623;SDS011;74849;51.340;12.610;2024-03-02T13:24:49;8.43;;;3.88;;
84623;SDS011;74849;51.340;12.610;2024-03-02T13:27:17;7.03;;;4.55;;
84623;SDS011;74849;51.340;12.610;2024-03-02T13:29:47;7.38;;;3.80;;
84623;SDS011;74849;51.340;12.610;2024-03-02T13:32:14;12.98;;;4.75;;
84623;SDS011;74849;51.340;12.610;2024-03-02T13:34:41;6.80;;;4.00;;
84623;SDS011;74849;51.340;12.610;2024-03-02T13:37:09;8.05;;;4.25;;
84623;SDS011;74849;51.340;12.610;2024-03-02T13:39:36;7.45;;;3.78;;
84623;SDS011;74849;51.340;12.610;2024-03-02T13:42:07;7.70;;;4.55;;
84623;SDS011;74849;51.340;12.610;2024-03-02T13:44:35;7.20;;;3.90;;
84623;SDS011;74849;51.340;12.610;2024-03-02T13:47:02;7.45;;;4.40;;
84623;SDS011;74849;51.340;12.610;2024-03-02T13:49:30;8.75;;;4.90;;
84623;SDS011;74849;51.340;12.610;2024-03-02T13:52:08;7.60;;;4.10;;
84623;SDS011;74849;51.340;12.610;2024-03-02T13:54:45;6.90;;;4.03;;
84623;SDS011;74849;51.340;12.610;2024-03-02T13:57:13;9.77;;;4.50;;
84623;SDS011;74849;51.340;12.610;2024-03-02T13:59:40;8.20;;;4.72;;
84623;SDS011;74849;51.340;12.610;2024-03-02T14:02:08;7.75;;;4.05;;
84623;SDS011;74849;51.340;12.610;2024-03-02T14:04:35;5.97;;;3.70;;
84623;SDS011;74849;51.340;12.610;2024-03-02T14:07:03;7.75;;;3.60;;
84623;SDS011;74849;51.340;12.610;2024-03-02T14:09:33;8.15;;;3.42;;
84623;SDS011;74849;51.340;12.610;2024-03-02T14:12:00;8.70;;;3.70;;
84623;SDS011;74849;51.340;12.610;2024-03-02T14:14:27;6.57;;;3.70;;
84623;SDS011;74849;51.340;12.610;2024-03-02T14:16:54;4.97;;;3.20;;
84623;SDS011;74849;51.340;12.610;2024-03-02T14:19:21;7.93;;;3.97;;
84623;SDS011;74849;51.340;12.610;2024-03-02T14:21:48;6.55;;;3.35;;
84623;SDS011;74849;51.340;12.610;2024-03-02T14:24:15;6.55;;;3.75;;
84623;SDS011;74849;51.340;12.610;2024-03-02T14:26:42;5.82;;;3.28;;
84623;SDS011;74849;51.340;12.610;2024-03-02T14:29:09;8.43;;;3.40;;
84623;SDS011;74849;51.340;12.610;2024-03-02T14:31:37;5.93;;;3.25;;
84623;SDS011;74849;51.340;12.610;2024-03-02T14:34:04;5.38;;;3.10;;
84623;SDS011;74849;51.340;12.610;2024-03-02T14:36:31;4.88;;;2.90;;
84623;SDS011;74849;51.340;12.610;2024-03-02T14:38:57;4.95;;;3.45;;
84623;SDS011;74849;51.340;12.610;2024-03-02T14:41:24;4.53;;;2.85;;
84623;SDS011;74849;51.340;12.610;2024-03-02T14:43:51;4.43;;;3.20;;
84623;SDS011;74849;51.340;12.610;2024-03-02T14:46:19;5.97;;;3.13;;
84623;SDS011;74849;51.340;12.610;2024-03-02T14:48:46;4.97;;;3.35;;
84623;SDS011;74849;51.340;12.610;2024-03-02T14:51:13;6.38;;;3.95;;
84623;SDS011;74849;51.340;12.610;2024-03-02T14:53:40;7.82;;;4.82;;
84623;SDS011;74849;51.340;12.610;2024-03-02T14:56:07;10.25;;;6.13;;
84623;SDS011;74849;51.340;12.610;2024-03-02T14:58:35;7.60;;;5.05;;
84623;SDS011;74849;51.340;12.610;2024-03-02T15:01:05;6.97;;;4.78;;
84623;SDS011;74849;51.340;12.610;2024-03-02T15:03:32;7.40;;;4.30;;
84623;SDS011;74849;51.340;12.610;2024-03-02T15:05:59;9.25;;;5.43;;
84623;SDS011;74849;51.340;12.610;2024-03-02T15:08:27;8.15;;;4.90;;
84623;SDS011;74849;51.340;12.610;2024-03-02T15:10:54;8.27;;;4.88;;
84623;SDS011;74849;51.340;12.610;2024-03-02T15:13:22;9.77;;;5.38;;
84623;SDS011;74849;51.340;12.610;2024-03-02T15:15:49;8.32;;;3.80;;
84623;SDS011;74849;51.340;12.610;2024-03-02T15:18:16;6.32;;;3.65;;
84623;SDS011;74849;51.340;12.610;2024-03-02T15:20:43;5.65;;;3.88;;
84623;SDS011;74849;51.340;12.610;2024-03-02T15:23:10;7.60;;;3.85;;
84623;SDS011;74849;51.340;12.610;2024-03-02T15:25:37;6.30;;;3.67;;
84623;SDS011;74849;51.340;12.610;2024-03-02T15:28:04;5.82;;;3.75;;
84623;SDS011;74849;51.340;12.610;2024-03-02T15:30:31;6.38;;;3.47;;
84623;SDS011;74849;51.340;12.610;2024-03-02T15:32:58;6.35;;;3.88;;
84623;SDS011;74849;51.340;12.610;2024-03-02T15:35:25;7.40;;;3.72;;
84623;SDS011;74849;51.340;12.610;2024-03-02T15:37:52;5.78;;;3.88;;
84623;SDS011;74849;51.340;12.610;2024-03-02T15:40:19;6.28;;;3.20;;
84623;SDS011;74849;51.340;12.610;2024-03-02T15:42:46;11.50;;;3.30;;
84623;SDS011;74849;51.340;12.610;2024-03-02T15:45:13;7.03;;;4.20;;
84623;SDS011;74849;51.340;12.610;2024-03-02T15:47:40;8.32;;;4.13;;
84623;SDS011;74849;51.340;12.610;2024-03-02T15:50:08;7.82;;;4.63;;
84623;SDS011;74849;51.340;12.610;2024-03-02T15:52:35;7.78;;;4.15;;
84623;SDS011;74849;51.340;12.610;2024-03-02T15:55:02;7.57;;;4.03;;
84623;SDS011;74849;51.340;12.610;2024-03-02T15:57:31;7.53;;;4.63;;
84623;SDS011;74849;51.340;12.610;2024-03-02T15:59:58;8.27;;;4.28;;
84623;SDS011;74849;51.340;12.610;2024-03-02T16:02:25;8.25;;;4.95;;
84623;SDS011;74849;51.340;12.610;2024-03-02T16:04:52;9.43;;;4.70;;
84623;SDS011;74849;51.340;12.610;2024-03-02T16:07:19;11.02;;;5.25;;
84623;SDS011;74849;51.340;12.610;2024-03-02T16:09:46;8.60;;;4.85;;
84623;SDS011;74849;51.340;12.610;2024-03-02T16:12:13;10.48;;;5.53;;
84623;SDS011;74849;51.340;12.610;2024-03-02T16:14:41;11.45;;;6.32;;
84623;SDS011;74849;51.340;12.610;2024-03-02T16:17:08;9.27;;;5.95;;
84623;SDS011;74849;51.340;12.610;2024-03-02T16:19:35;10.55;;;5.80;;
84623;SDS011;74849;51.340;12.610;2024-03-02T16:22:05;8.15;;;4.85;;
84623;SDS011;74849;51.340;12.610;2024-03-02T16:24:34;10.35;;;5.88;;
84623;SDS011;74849;51.340;12.610;2024-03-02T16:27:00;8.65;;;5.07;;
84623;SDS011;74849;51.340;12.610;2024-03-02T16:29:27;13.27;;;5.85;;
84623;SDS011;74849;51.340;12.610;2024-03-02T16:31:54;12.40;;;7.03;;
84623;SDS011;74849;51.340;12.610;2024-03-02T16:34:21;14.07;;;7.57;;
84623;SDS011;74849;51.340;12.610;2024-03-02T16:36:48;12.52;;;7.57;;
84623;SDS011;74849;51.340;12.610;2024-03-02T16:39:15;15.63;;;8.32;;
84623;SDS011;74849;51.340;12.610;2024-03-02T16:41:42;20.67;;;10.85;;
84623;SDS011;74849;51.340;12.610;2024-03-02T16:44:12;23.08;;;11.18;;
84623;SDS011;74849;51.340;12.610;2024-03-02T16:46:39;29.15;;;13.15;;
84623;SDS011;74849;51.340;12.610;2024-03-02T16:49:07;21.60;;;11.00;;
84623;SDS011;74849;51.340;12.610;2024-03-02T16:51:40;26.00;;;12.57;;
84623;SDS011;74849;51.340;12.610;2024-03-02T16:54:07;23.38;;;12.40;;
84623;SDS011;74849;51.340;12.610;2024-03-02T16:56:41;19.83;;;9.82;;
84623;SDS011;74849;51.340;12.610;2024-03-02T16:59:12;19.85;;;10.65;;
84623;SDS011;74849;51.340;12.610;2024-03-02T17:01:39;18.90;;;10.90;;
84623;SDS011;74849;51.340;12.610;2024-03-02T17:04:06;18.70;;;9.90;;
84623;SDS011;74849;51.340;12.610;2024-03-02T17:06:33;18.70;;;9.73;;
84623;SDS011;74849;51.340;12.610;2024-03-02T17:09:00;20.60;;;9.77;;
84623;SDS011;74849;51.340;12.610;2024-03-02T17:11:28;18.10;;;9.88;;
84623;SDS011;74849;51.340;12.610;2024-03-02T17:13:56;16.48;;;9.15;;
84623;SDS011;74849;51.340;12.610;2024-03-02T17:16:23;18.58;;;9.73;;
84623;SDS011;74849;51.340;12.610;2024-03-02T17:18:50;18.58;;;10.48;;
84623;SDS011;74849;51.340;12.610;2024-03-02T17:21:17;20.77;;;9.90;;
84623;SDS011;74849;51.340;12.610;2024-03-02T17:23:45;18.67;;;10.32;;
84623;SDS011;74849;51.340;12.610;2024-03-02T17:26:12;21.33;;;9.95;;
84623;SDS011;74849;51.340;12.610;2024-03-02T17:28:39;25.08;;;10.45;;
84623;SDS011;74849;51.340;12.610;2024-03-02T17:31:07;23.33;;;11.55;;
84623;SDS011;74849;51.340;12.610;2024-03-02T17:33:34;23.85;;;11.32;;
84623;SDS011;74849;51.340;12.610;2024-03-02T17:36:01;24.15;;;12.13;;
84623;SDS011;74849;51.340;12.610;2024-03-02T17:38:29;26.13;;;11.95;;
84623;SDS011;74849;51.340;12.610;2024-03-02T17:40:56;25.52;;;12.35;;
84623;SDS011;74849;51.340;12.610;2024-03-02T17:43:23;24.83;;;12.02;;
84623;SDS011;74849;51.340;12.610;2024-03-02T17:45:50;24.40;;;12.10;;
84623;SDS011;74849;51.340;12.610;2024-03-02T17:48:17;28.75;;;12.77;;
84623;SDS011;74849;51.340;12.610;2024-03-02T17:50:48;23.73;;;12.80;;
84623;SDS011;74849;51.340;12.610;2024-03-02T17:53:15;26.38;;;12.77;;
84623;SDS011;74849;51.340;12.610;2024-03-02T17:55:42;28.65;;;12.75;;
84623;SDS011;74849;51.340;12.610;2024-03-02T17:58:09;23.80;;;11.60;;
84623;SDS011;74849;51.340;12.610;2024-03-02T18:00:36;28.52;;;13.40;;
84623;SDS011;74849;51.340;12.610;2024-03-02T18:03:03;30.10;;;14.70;;
84623;SDS011;74849;51.340;12.610;2024-03-02T18:05:31;33.38;;;15.63;;
84623;SDS011;74849;51.340;12.610;2024-03-02T18:07:58;31.20;;;14.35;;
84623;SDS011;74849;51.340;12.610;2024-03-02T18:10:25;34.53;;;15.50;;
84623;SDS011;74849;51.340;12.610;2024-03-02T18:12:55;34.08;;;14.88;;
84623;SDS011;74849;51.340;12.610;2024-03-02T18:15:22;34.63;;;15.63;;
84623;SDS011;74849;51.340;12.610;2024-03-02T18:17:49;35.03;;;15.60;;
84623;SDS011;74849;51.340;12.610;2024-03-02T18:20:16;37.08;;;17.40;;
84623;SDS011;74849;51.340;12.610;2024-03-02T18:22:43;37.47;;;15.52;;
84623;SDS011;74849;51.340;12.610;2024-03-02T18:25:10;37.10;;;17.58;;
84623;SDS011;74849;51.340;12.610;2024-03-02T18:27:36;42.28;;;18.90;;
84623;SDS011;74849;51.340;12.610;2024-03-02T18:30:04;40.58;;;17.90;;
84623;SDS011;74849;51.340;12.610;2024-03-02T18:32:36;42.58;;;18.80;;
84623;SDS011;74849;51.340;12.610;2024-03-02T18:35:06;38.60;;;17.58;;
84623;SDS011;74849;51.340;12.610;2024-03-02T18:37:34;35.13;;;15.55;;
84623;SDS011;74849;51.340;12.610;2024-03-02T18:40:02;40.28;;;18.75;;
84623;SDS011;74849;51.340;12.610;2024-03-02T18:42:31;37.72;;;18.50;;
84623;SDS011;74849;51.340;12.610;2024-03-02T18:44:58;37.42;;;17.92;;
84623;SDS011;74849;51.340;12.610;2024-03-02T18:47:28;35.15;;;17.35;;
84623;SDS011;74849;51.340;12.610;2024-03-02T18:49:56;39.28;;;18.60;;
84623;SDS011;74849;51.340;12.610;2024-03-02T18:52:23;43.20;;;19.02;;
84623;SDS011;74849;51.340;12.610;2024-03-02T18:54:50;36.88;;;18.10;;
84623;SDS011;74849;51.340;12.610;2024-03-02T18:57:17;37.85;;;17.02;;
84623;SDS011;74849;51.340;12.610;2024-03-02T18:59:44;38.53;;;18.42;;
84623;SDS011;74849;51.340;12.610;2024-03-02T19:02:11;37.25;;;18.33;;
84623;SDS011;74849;51.340;12.610;2024-03-02T19:04:38;35.38;;;15.85;;
84623;SDS011;74849;51.340;12.610;2024-03-02T19:07:06;35.45;;;17.52;;
84623;SDS011;74849;51.340;12.610;2024-03-02T19:09:33;38.28;;;17.70;;
84623;SDS011;74849;51.340;12.610;2024-03-02T19:12:00;38.53;;;18.05;;
84623;SDS011;74849;51.340;12.610;2024-03-02T19:14:27;40.83;;;18.55;;
84623;SDS011;74849;51.340;12.610;2024-03-02T19:16:54;39.65;;;18.90;;
84623;SDS011;74849;51.340;12.610;2024-03-02T19:19:21;37.58;;;18.00;;
84623;SDS011;74849;51.340;12.610;2024-03-02T19:21:48;40.33;;;17.25;;
84623;SDS011;74849;51.340;12.610;2024-03-02T19:24:14;39.17;;;18.27;;
84623;SDS011;74849;51.340;12.610;2024-03-02T19:26:41;35.10;;;16.90;;
84623;SDS011;74849;51.340;12.610;2024-03-02T19:29:08;39.30;;;17.55;;
84623;SDS011;74849;51.340;12.610;2024-03-02T19:31:37;37.97;;;18.45;;
84623;SDS011;74849;51.340;12.610;2024-03-02T19:34:04;39.50;;;18.70;;
84623;SDS011;74849;51.340;12.610;2024-03-02T19:36:34;36.53;;;17.85;;
84623;SDS011;74849;51.340;12.610;2024-03-02T19:39:01;32.72;;;17.45;;
84623;SDS011;74849;51.340;12.610;2024-03-02T19:41:27;35.75;;;17.27;;
84623;SDS011;74849;51.340;12.610;2024-03-02T19:43:54;39.20;;;18.38;;
84623;SDS011;74849;51.340;12.610;2024-03-02T19:46:21;37.00;;;17.92;;
84623;SDS011;74849;51.340;12.610;2024-03-02T19:48:48;37.83;;;17.92;;
84623;SDS011;74849;51.340;12.610;2024-03-02T19:51:15;33.10;;;17.25;;
84623;SDS011;74849;51.340;12.610;2024-03-02T19:53:42;37.63;;;17.83;;
84623;SDS011;74849;51.340;12.610;2024-03-02T19:56:15;41.40;;;19.02;;
84623;SDS011;74849;51.340;12.610;2024-03-02T19:58:43;37.80;;;18.90;;